CYET

Edson Airport

Edson, Alberta, Canada
METAR CYET 181420Z AUTO 35013G19KT 3SM HZ SCT022 12/05 A3023 RMK SLP240
Observed Flight Rules
Aug-18 @ 14:20 UTC (32 minutes ago) Marginal Visual Flight Rules
Wind Visibility Clouds Conditions
350° at 13 knots
 Gusting to 19 knots
3 miles
  • Scattered at 2,200' AGL
  • Haze
Temperatures Readings
Current 12°C / 54°F
Dewpoint 5°C / 41°F
Humidity 63%
Altimeter 30.23" Hg
Pressure 1024 hPa
Elevation 925
METAR CYET 181420Z AUTO 35013G19KT 3SM HZ SCT022 12/05 A3023 RMK SLP240
Observed Flight Rules
Aug-18 @ 14:20 UTC
(32 minutes ago)
MVFR
Wind Visibility
350° at 13 knots
 Gusting to 19 knots
3 miles
Clouds
  • Scattered at 2,200' AGL
Conditions
  • Haze
Temperature Dewpoint
12°C / 54°F 5°C / 41°F
Humidity Altimeter Pressure
63% 30.23" Hg 1024 hPa